createdAt,value
2023-10-26T00:00:49.247Z,77.17
2023-10-26T00:05:51.230Z,77.81
2023-10-26T00:10:54.240Z,77.07
2023-10-26T00:15:58.486Z,77.49
2023-10-26T00:21:01.576Z,77.33
2023-10-26T00:26:03.808Z,77.72
2023-10-26T00:31:05.557Z,77.35
2023-10-26T00:36:08.067Z,76.55
2023-10-26T00:41:12.088Z,76.94
2023-10-26T00:46:14.502Z,77.28
2023-10-26T00:51:16.699Z,76.70
2023-10-26T00:56:22.621Z,76.91
2023-10-26T01:01:25.751Z,76.68
2023-10-26T01:06:27.861Z,76.62
2023-10-26T01:11:32.504Z,77.21
2023-10-26T01:16:37.316Z,77.60
2023-10-26T01:21:55.180Z,77.25
2023-10-26T01:26:57.379Z,77.39
2023-10-26T01:32:00.054Z,76.83
2023-10-26T01:37:05.542Z,77.24
2023-10-26T01:42:11.507Z,76.79
2023-10-26T01:47:15.729Z,77.35
2023-10-26T01:52:17.974Z,77.05
2023-10-26T01:57:20.048Z,77.27
2023-10-26T02:02:21.956Z,76.99
2023-10-26T02:07:23.762Z,77.14
2023-10-26T02:12:25.668Z,77.87
2023-10-26T02:17:27.492Z,77.71
2023-10-26T02:22:29.260Z,77.22
2023-10-26T02:27:35.294Z,77.70
2023-10-26T02:32:37.443Z,76.98
2023-10-26T02:37:42.470Z,77.19
2023-10-26T02:42:44.412Z,77.10
2023-10-26T02:47:46.287Z,76.73
2023-10-26T02:52:50.315Z,77.57
2023-10-26T02:57:52.375Z,77.24
2023-10-26T03:02:57.035Z,77.65
2023-10-26T03:07:59.092Z,77.73
2023-10-26T03:13:00.948Z,77.32
2023-10-26T03:18:03.179Z,76.53
2023-10-26T03:23:05.427Z,77.02
2023-10-26T03:28:07.383Z,76.75
2023-10-26T03:33:11.478Z,78.04
2023-10-26T03:38:15.934Z,75.58
2023-10-26T03:43:20.162Z,74.99
2023-10-26T03:48:22.221Z,73.97
2023-10-26T03:53:24.149Z,73.82
2023-10-26T03:58:27.398Z,83.10
2023-10-26T04:03:31.502Z,85.87
2023-10-26T04:08:33.497Z,87.21
2023-10-26T04:13:35.931Z,87.85
2023-10-26T04:18:37.809Z,87.64
2023-10-26T04:23:39.757Z,87.48
2023-10-26T04:28:51.466Z,87.59
2023-10-26T04:33:54.035Z,87.60
2023-10-26T04:38:56.254Z,87.56
2023-10-26T04:43:58.361Z,87.95
2023-10-26T04:49:00.352Z,88.31
2023-10-26T04:54:07.062Z,87.50
2023-10-26T04:59:09.094Z,87.46
2023-10-26T05:04:11.723Z,88.00
2023-10-26T05:09:13.595Z,88.40
2023-10-26T05:14:15.590Z,88.89
2023-10-26T05:19:17.518Z,88.09
2023-10-26T05:24:19.333Z,88.44
2023-10-26T05:29:21.167Z,88.20
2023-10-26T05:34:23.658Z,88.43
2023-10-26T05:39:25.597Z,88.28
2023-10-26T05:44:29.350Z,88.82
2023-10-26T05:49:31.376Z,88.57
2023-10-26T05:54:33.278Z,88.96
2023-10-26T05:59:35.207Z,89.06
2023-10-26T06:04:39.177Z,89.44
2023-10-26T06:09:41.367Z,88.91
2023-10-26T06:14:43.491Z,89.41
2023-10-26T06:19:45.638Z,88.61
2023-10-26T06:24:47.648Z,89.35
2023-10-26T06:29:53.385Z,89.04
2023-10-26T06:34:58.141Z,89.15
2023-10-26T06:40:00.711Z,89.14
2023-10-26T06:45:04.237Z,89.05
2023-10-26T06:50:07.828Z,89.32
2023-10-26T06:55:30.464Z,88.90
2023-10-26T07:00:35.649Z,88.93
2023-10-26T07:05:37.765Z,88.75
2023-10-26T07:10:41.291Z,88.95
2023-10-26T07:15:43.347Z,88.52
2023-10-26T07:20:46.408Z,88.75
2023-10-26T07:25:49.988Z,88.50
2023-10-26T07:30:53.317Z,89.11
2023-10-26T07:35:57.687Z,88.80
2023-10-26T07:41:04.526Z,88.45
2023-10-26T07:46:06.963Z,88.14
2023-10-26T07:51:11.681Z,88.61
2023-10-26T07:56:13.552Z,88.69
2023-10-26T08:01:15.914Z,88.86
2023-10-26T08:06:17.719Z,88.70
2023-10-26T08:11:19.510Z,88.52
2023-10-26T08:16:43.924Z,88.89
2023-10-26T08:21:43.444Z,88.42
2023-10-26T08:26:45.340Z,88.94
2023-10-26T08:31:47.189Z,88.73
2023-10-26T08:37:02.070Z,88.85
2023-10-26T08:42:15.309Z,88.74
2023-10-26T08:47:22.933Z,88.83
2023-10-26T08:52:28.260Z,88.70
2023-10-26T08:57:31.545Z,88.73
2023-10-26T09:02:33.836Z,88.42
2023-10-26T09:07:36.744Z,88.98
2023-10-26T09:12:38.826Z,89.12
2023-10-26T09:17:45.201Z,88.90
2023-10-26T09:22:47.211Z,88.69
2023-10-26T09:27:49.120Z,88.67
2023-10-26T09:32:51.152Z,88.73
2023-10-26T09:37:53.299Z,88.72
2023-10-26T09:42:59.161Z,88.17
2023-10-26T09:48:06.255Z,88.00
2023-10-26T09:58:21.752Z,88.27
2023-10-26T10:03:23.866Z,87.42
2023-10-26T10:09:00.981Z,87.86
2023-10-26T10:14:05.269Z,87.53
2023-10-26T10:19:24.782Z,87.96
2023-10-26T10:24:38.953Z,87.28
2023-10-26T10:29:44.137Z,87.94
2023-10-26T10:34:47.160Z,87.07
2023-10-26T10:40:14.109Z,86.96
2023-10-26T10:45:19.699Z,87.56
2023-10-26T10:50:27.782Z,87.29
2023-10-26T10:55:31.177Z,87.20
2023-10-26T11:00:47.555Z,87.52
2023-10-26T11:05:53.192Z,87.47
2023-10-26T11:10:55.807Z,87.64
2023-10-26T11:15:57.689Z,87.01
2023-10-26T11:21:00.369Z,86.31
2023-10-26T11:26:14.895Z,86.59
2023-10-26T11:31:17.057Z,87.16
2023-10-26T11:36:21.458Z,87.00
2023-10-26T11:41:27.239Z,86.70
2023-10-26T11:46:30.089Z,86.32
2023-10-26T11:51:32.896Z,86.14
2023-10-26T11:56:34.762Z,84.91
2023-10-26T12:01:36.744Z,85.96
2023-10-26T12:06:41.189Z,86.21
2023-10-26T12:11:47.897Z,86.47
2023-10-26T12:16:50.334Z,86.72
2023-10-26T12:21:55.820Z,86.75
2023-10-26T12:27:00.828Z,87.93
2023-10-26T12:32:02.657Z,87.67
2023-10-26T12:37:05.588Z,87.84
2023-10-26T12:42:07.470Z,87.70
2023-10-26T12:47:09.324Z,87.85
2023-10-26T12:52:11.213Z,86.69
2023-10-26T12:57:12.967Z,87.32
2023-10-26T13:02:14.742Z,87.12
2023-10-26T13:07:19.303Z,86.65
2023-10-26T13:12:21.161Z,86.78
2023-10-26T13:17:22.963Z,86.86
2023-10-26T13:22:27.142Z,86.62
2023-10-26T13:27:29.017Z,87.01
2023-10-26T13:32:31.025Z,86.98
2023-10-26T13:37:33.175Z,87.48
2023-10-26T13:42:35.046Z,87.58
2023-10-26T13:47:37.019Z,86.43
2023-10-26T13:52:38.933Z,86.82
2023-10-26T13:57:40.708Z,86.56
2023-10-26T14:02:42.488Z,86.82
2023-10-26T14:07:48.159Z,86.12
2023-10-26T14:12:50.184Z,87.03
2023-10-26T14:17:51.990Z,86.84
2023-10-26T14:22:54.106Z,87.11
2023-10-26T14:27:58.439Z,86.80
2023-10-26T14:33:00.211Z,87.24
2023-10-26T14:38:02.837Z,86.73
2023-10-26T14:43:04.714Z,86.32
2023-10-26T14:48:09.606Z,86.24
2023-10-26T14:53:11.652Z,86.05
2023-10-26T14:58:16.295Z,86.40
2023-10-26T15:03:18.156Z,85.66
2023-10-26T15:08:20.371Z,85.96
2023-10-26T15:13:23.786Z,85.52
2023-10-26T15:18:28.850Z,84.79
2023-10-26T15:23:30.672Z,84.83
2023-10-26T15:28:36.447Z,85.55
2023-10-26T15:33:39.442Z,84.24
2023-10-26T15:38:42.960Z,83.61
2023-10-26T15:43:44.946Z,83.96
2023-10-26T15:49:31.484Z,84.29
2023-10-26T15:54:09.496Z,83.81
2023-10-26T15:59:11.433Z,84.44
2023-10-26T16:04:13.300Z,84.39
2023-10-26T16:09:15.321Z,84.16
2023-10-26T16:14:17.160Z,84.33
2023-10-26T16:19:18.982Z,84.57
2023-10-26T16:24:21.161Z,84.63
2023-10-26T16:29:23.237Z,84.73
2023-10-26T16:34:25.113Z,84.57
2023-10-26T16:39:29.258Z,84.75
2023-10-26T16:44:31.083Z,84.64
2023-10-26T16:49:33.046Z,85.23
2023-10-26T16:54:35.650Z,84.97
2023-10-26T16:59:38.666Z,83.96
2023-10-26T17:04:41.649Z,84.71
2023-10-26T17:09:43.911Z,84.50
2023-10-26T17:14:51.682Z,84.86
2023-10-26T17:19:54.093Z,85.35
2023-10-26T17:24:56.691Z,85.41
2023-10-26T17:29:58.592Z,85.28
2023-10-26T17:35:00.608Z,85.56
2023-10-26T17:40:03.188Z,85.70
2023-10-26T17:45:05.760Z,86.03
2023-10-26T17:50:07.957Z,85.90
2023-10-26T17:55:10.414Z,85.92
2023-10-26T18:00:12.843Z,85.63
2023-10-26T18:05:16.209Z,86.05
2023-10-26T18:10:21.068Z,85.72
2023-10-26T18:15:23.393Z,85.87
2023-10-26T18:20:27.416Z,86.32
2023-10-26T18:25:29.290Z,86.19
2023-10-26T18:30:33.533Z,86.44
2023-10-26T18:35:35.343Z,86.25
2023-10-26T18:40:39.164Z,86.24
2023-10-26T18:45:41.149Z,86.31
2023-10-26T18:50:50.074Z,86.26
2023-10-26T18:55:54.530Z,85.87
2023-10-26T19:00:58.610Z,86.38
2023-10-26T19:06:03.944Z,85.84
2023-10-26T19:11:05.812Z,86.14
2023-10-26T19:16:07.977Z,86.04
2023-10-26T19:21:12.442Z,86.61
2023-10-26T19:26:15.584Z,86.57
2023-10-26T19:31:19.902Z,86.14
2023-10-26T19:36:21.978Z,86.90
2023-10-26T19:41:26.280Z,87.17
2023-10-26T19:46:30.562Z,86.27
2023-10-26T19:51:33.158Z,86.32
2023-10-26T19:56:35.158Z,86.40
2023-10-26T20:01:37.111Z,85.93
2023-10-26T20:06:39.629Z,85.89
2023-10-26T20:11:43.965Z,86.06
2023-10-26T20:16:46.644Z,86.49
2023-10-26T20:21:52.107Z,86.39
2023-10-26T20:26:54.102Z,86.28
2023-10-26T20:31:56.491Z,86.09
2023-10-26T20:36:58.840Z,86.32
2023-10-26T20:42:03.672Z,86.35
2023-10-26T20:47:06.615Z,85.98
2023-10-26T20:52:08.855Z,86.28
2023-10-26T20:57:10.696Z,86.41
2023-10-26T21:02:12.970Z,86.12
2023-10-26T21:07:14.820Z,86.28
2023-10-26T21:12:19.282Z,86.45
2023-10-26T21:17:24.848Z,86.59
2023-10-26T21:22:27.130Z,86.88
2023-10-26T21:27:28.916Z,86.05
2023-10-26T21:32:30.917Z,85.63
2023-10-26T21:37:33.033Z,86.30
2023-10-26T21:42:34.863Z,85.80
2023-10-26T21:47:36.711Z,86.15
2023-10-26T21:52:38.587Z,86.16
2023-10-26T21:57:40.378Z,85.62
2023-10-26T22:02:43.652Z,85.47
2023-10-26T22:07:45.551Z,85.52
2023-10-26T22:12:50.067Z,85.84
2023-10-26T22:17:54.938Z,85.63
2023-10-26T22:22:56.776Z,85.41
2023-10-26T22:27:58.890Z,85.64
2023-10-26T22:33:00.772Z,85.77
2023-10-26T22:38:02.623Z,85.46
2023-10-26T22:43:04.808Z,85.77
2023-10-26T22:48:06.851Z,85.74
2023-10-26T22:53:08.760Z,85.84
2023-10-26T22:58:10.899Z,85.87
2023-10-26T23:03:12.954Z,86.13
2023-10-26T23:08:15.862Z,85.61
2023-10-26T23:13:17.662Z,86.18
2023-10-26T23:18:19.516Z,86.07
2023-10-26T23:23:21.406Z,85.58
2023-10-26T23:28:23.448Z,85.90
2023-10-26T23:33:25.466Z,85.78
2023-10-26T23:38:28.213Z,85.43
2023-10-26T23:43:30.194Z,85.58
2023-10-26T23:48:32.094Z,86.26
2023-10-26T23:53:35.977Z,85.52
2023-10-26T23:58:40.289Z,85.18
